createdAt,value
2023-02-26T00:01:29.703Z,101147.56
2023-02-26T00:04:01.135Z,101158.75
2023-02-26T00:06:31.280Z,101161.31
2023-02-26T00:08:58.356Z,101157.00
2023-02-26T00:11:25.468Z,101177.50
2023-02-26T00:13:52.717Z,101169.75
2023-02-26T00:16:36.301Z,101168.88
2023-02-26T00:19:06.439Z,101179.94
2023-02-26T00:21:35.461Z,101184.97
2023-02-26T00:24:02.555Z,101186.50
2023-02-26T00:26:31.771Z,101189.81
2023-02-26T00:28:59.483Z,101194.16
2023-02-26T00:31:27.415Z,101194.28
2023-02-26T00:33:56.931Z,101194.28
2023-02-26T00:36:35.846Z,101195.03
2023-02-26T00:39:29.006Z,101207.66
2023-02-26T00:41:56.336Z,101205.94
2023-02-26T00:44:23.544Z,101204.97
2023-02-26T00:47:22.143Z,101192.72
2023-02-26T00:50:21.451Z,101200.66
2023-02-26T00:53:17.687Z,101203.63
2023-02-26T00:55:44.556Z,101210.47
2023-02-26T00:58:11.530Z,101222.56
2023-02-26T01:00:38.429Z,101226.88
2023-02-26T01:03:05.700Z,101225.88
2023-02-26T01:05:32.919Z,101234.34
2023-02-26T01:08:16.127Z,101231.69
2023-02-26T01:10:43.263Z,101230.88
2023-02-26T01:13:10.350Z,101238.72
2023-02-26T01:15:37.600Z,101244.53
2023-02-26T01:18:18.442Z,101241.16
2023-02-26T01:20:51.757Z,101251.38
2023-02-26T01:23:25.288Z,101249.53
2023-02-26T01:26:04.038Z,101253.81
2023-02-26T01:28:31.669Z,101241.91
2023-02-26T01:31:05.240Z,101253.28
2023-02-26T01:33:44.476Z,101249.69
2023-02-26T01:36:25.276Z,101245.72
2023-02-26T01:39:05.041Z,101259.59
2023-02-26T01:41:48.151Z,101263.09
2023-02-26T01:44:32.072Z,101270.75
2023-02-26T01:47:20.374Z,101270.81
2023-02-26T01:49:47.717Z,101271.75
2023-02-26T01:52:32.527Z,101274.41
2023-02-26T01:55:01.211Z,101279.59
2023-02-26T01:57:28.125Z,101273.38
2023-02-26T01:59:55.023Z,101277.59
2023-02-26T02:02:25.595Z,101262.53
2023-02-26T02:04:53.400Z,101281.91
2023-02-26T02:07:20.312Z,101272.63
2023-02-26T02:09:47.621Z,101288.28
2023-02-26T02:12:41.978Z,101288.41
2023-02-26T02:15:30.943Z,101284.91
2023-02-26T02:18:16.876Z,101301.44
2023-02-26T02:21:23.742Z,101299.38
2023-02-26T02:24:05.449Z,101311.03
2023-02-26T02:26:56.246Z,101304.69
2023-02-26T02:29:50.307Z,101311.22
2023-02-26T02:32:47.350Z,101323.94
2023-02-26T02:35:42.076Z,101331.56
2023-02-26T02:38:17.169Z,101338.34
2023-02-26T02:40:49.789Z,101329.56
2023-02-26T02:43:20.671Z,101325.56
2023-02-26T02:45:51.643Z,101330.94
2023-02-26T02:49:01.279Z,101340.84
2023-02-26T02:51:51.627Z,101342.88
2023-02-26T02:54:34.791Z,101342.78
2023-02-26T02:57:10.951Z,101354.72
2023-02-26T02:59:45.334Z,101358.19
2023-02-26T03:02:28.829Z,101374.34
2023-02-26T03:04:55.800Z,101366.75
2023-02-26T03:07:22.837Z,101373.66
2023-02-26T03:09:52.609Z,101381.59
2023-02-26T03:12:19.943Z,101383.50
2023-02-26T03:14:47.165Z,101381.91
2023-02-26T03:17:45.647Z,101381.81
2023-02-26T03:20:30.490Z,101392.47
2023-02-26T03:23:16.683Z,101397.09
2023-02-26T03:26:11.818Z,101394.78
2023-02-26T03:28:52.142Z,101402.66
2023-02-26T03:31:32.123Z,101394.88
2023-02-26T03:34:14.271Z,101410.56
2023-02-26T03:36:49.058Z,101408.75
2023-02-26T03:39:38.064Z,101403.25
2023-02-26T03:42:24.585Z,101415.97
2023-02-26T03:45:25.599Z,101421.56
2023-02-26T03:47:54.998Z,101446.84
2023-02-26T03:50:33.905Z,101431.13
2023-02-26T03:53:32.185Z,101431.78
2023-02-26T03:56:31.362Z,101447.06
2023-02-26T03:59:30.725Z,101450.28
2023-02-26T04:02:17.293Z,101440.63
2023-02-26T04:04:56.035Z,101443.16
2023-02-26T04:07:23.222Z,101441.38
2023-02-26T04:09:52.129Z,101446.50
2023-02-26T04:12:24.189Z,101457.16
2023-02-26T04:14:53.369Z,101449.69
2023-02-26T04:17:20.306Z,101450.50
2023-02-26T04:19:47.228Z,101454.59
2023-02-26T04:22:14.334Z,101449.41
2023-02-26T04:24:41.428Z,101456.28
2023-02-26T04:27:08.502Z,101464.81
2023-02-26T04:29:35.436Z,101470.13
2023-02-26T04:32:02.446Z,101470.19
2023-02-26T04:34:29.565Z,101469.38
2023-02-26T04:36:56.953Z,101469.38
2023-02-26T04:39:23.956Z,101479.56
2023-02-26T04:41:50.935Z,101474.28
2023-02-26T04:44:17.862Z,101487.16
2023-02-26T04:46:44.814Z,101491.66
2023-02-26T04:49:12.545Z,101486.66
2023-02-26T04:51:43.193Z,101498.72
2023-02-26T04:54:11.921Z,101506.25
2023-02-26T04:56:38.809Z,101510.22
2023-02-26T04:59:05.745Z,101513.53
2023-02-26T05:01:32.702Z,101511.50
2023-02-26T05:03:59.971Z,101513.06
2023-02-26T05:06:27.177Z,101517.22
2023-02-26T05:08:54.250Z,101518.84
2023-02-26T05:11:21.259Z,101519.66
2023-02-26T05:13:48.325Z,101531.53
2023-02-26T05:16:15.550Z,101524.69
2023-02-26T05:18:42.611Z,101516.75
2023-02-26T05:21:09.562Z,101533.38
2023-02-26T05:23:37.671Z,101541.97
2023-02-26T05:26:04.698Z,101543.50
2023-02-26T05:28:33.804Z,101555.38
2023-02-26T05:31:01.374Z,101560.28
2023-02-26T05:33:28.362Z,101561.00
2023-02-26T05:35:55.294Z,101555.09
2023-02-26T05:38:22.185Z,101560.22
2023-02-26T05:40:49.225Z,101556.44
2023-02-26T05:43:16.160Z,101574.69
2023-02-26T05:45:43.068Z,101578.28
2023-02-26T05:48:11.167Z,101579.88
2023-02-26T05:50:38.077Z,101592.66
2023-02-26T05:53:05.037Z,101595.00
2023-02-26T05:55:32.193Z,101582.22
2023-02-26T05:57:59.102Z,101610.88
2023-02-26T06:00:26.509Z,101612.56
2023-02-26T06:02:53.435Z,101615.84
2023-02-26T06:05:20.419Z,101607.91
2023-02-26T06:07:47.660Z,101624.03
2023-02-26T06:10:14.744Z,101634.78
2023-02-26T06:12:41.661Z,101636.75
2023-02-26T06:15:09.664Z,101637.06
2023-02-26T06:17:39.605Z,101634.84
2023-02-26T06:20:08.547Z,101640.28
2023-02-26T06:22:35.471Z,101635.53
2023-02-26T06:25:02.728Z,101645.53
2023-02-26T06:27:29.653Z,101652.19
2023-02-26T06:29:56.643Z,101646.94
2023-02-26T06:32:23.643Z,101654.47
2023-02-26T06:34:50.549Z,101646.13
2023-02-26T06:37:17.410Z,101676.59
2023-02-26T06:39:44.291Z,101676.59
2023-02-26T06:42:11.171Z,101674.81
2023-02-26T06:44:38.119Z,101677.38
2023-02-26T06:47:05.385Z,101680.75
2023-02-26T06:49:32.532Z,101686.91
2023-02-26T06:51:59.492Z,101684.56
2023-02-26T06:54:26.441Z,101692.59
2023-02-26T06:56:57.608Z,101692.97
2023-02-26T06:59:24.866Z,101697.56
2023-02-26T07:01:51.920Z,101697.81
2023-02-26T07:04:20.659Z,101697.81
2023-02-26T07:06:47.769Z,101683.63
2023-02-26T07:09:14.682Z,101710.91
2023-02-26T07:11:41.624Z,101715.16
2023-02-26T07:14:08.497Z,101723.66
2023-02-26T07:16:35.544Z,101713.03
2023-02-26T07:19:02.449Z,101715.84
2023-02-26T07:21:29.358Z,101719.94
2023-02-26T07:23:56.249Z,101725.50
2023-02-26T07:26:23.357Z,101718.84
2023-02-26T07:28:50.338Z,101725.25
2023-02-26T07:31:17.365Z,101728.13
2023-02-26T07:33:44.291Z,101740.47
2023-02-26T07:36:11.183Z,101738.06
2023-02-26T07:38:38.106Z,101741.25
2023-02-26T07:41:05.147Z,101734.97
2023-02-26T07:43:32.036Z,101745.59
2023-02-26T07:45:58.972Z,101755.50
2023-02-26T07:48:25.945Z,101754.88
2023-02-26T07:50:53.740Z,101749.63
2023-02-26T07:53:21.562Z,101762.13
2023-02-26T07:55:48.462Z,101775.03
2023-02-26T07:58:15.342Z,101774.97
2023-02-26T08:00:42.475Z,101771.59
2023-02-26T08:03:09.384Z,101775.13
2023-02-26T08:05:36.623Z,101780.59
2023-02-26T08:08:03.573Z,101771.13
2023-02-26T08:10:30.970Z,101787.69
2023-02-26T08:12:57.837Z,101783.44
2023-02-26T08:15:25.021Z,101782.72
2023-02-26T08:17:55.094Z,101776.44
2023-02-26T08:20:22.021Z,101795.03
2023-02-26T08:22:50.622Z,101795.22
2023-02-26T08:25:17.951Z,101794.41
2023-02-26T08:27:45.139Z,101802.38
2023-02-26T08:30:12.604Z,101804.31
2023-02-26T08:32:40.013Z,101814.94
2023-02-26T08:35:07.188Z,101819.44
2023-02-26T08:37:34.135Z,101816.22
2023-02-26T08:40:01.028Z,101829.25
2023-02-26T08:42:28.024Z,101832.97
2023-02-26T08:44:54.943Z,101832.25
2023-02-26T08:47:28.769Z,101833.41
2023-02-26T08:49:56.465Z,101837.88
2023-02-26T08:52:23.647Z,101843.38
2023-02-26T08:54:50.811Z,101840.41
2023-02-26T08:57:17.990Z,101846.06
2023-02-26T08:59:44.891Z,101848.94
2023-02-26T09:02:12.703Z,101853.13
2023-02-26T09:04:40.004Z,101851.47
2023-02-26T09:07:06.953Z,101870.59
2023-02-26T09:09:33.844Z,101867.31
2023-02-26T09:12:00.809Z,101873.44
2023-02-26T09:14:27.746Z,101882.28
2023-02-26T09:16:54.642Z,101880.72
2023-02-26T09:19:21.663Z,101888.72
2023-02-26T09:21:48.541Z,101914.34
2023-02-26T09:24:15.429Z,101894.97
2023-02-26T09:26:42.379Z,101896.84
2023-02-26T09:29:09.630Z,101902.94
2023-02-26T09:31:36.706Z,101912.59
2023-02-26T09:34:03.650Z,101922.09
2023-02-26T09:36:31.458Z,101923.97
2023-02-26T09:38:58.345Z,101927.56
2023-02-26T09:41:37.906Z,101934.72
2023-02-26T09:44:33.179Z,101945.13
2023-02-26T09:47:20.820Z,101927.00
2023-02-26T09:50:06.195Z,101949.00
2023-02-26T09:52:51.739Z,101951.59
2023-02-26T09:55:35.153Z,101952.72
2023-02-26T09:58:13.326Z,101943.94
2023-02-26T10:00:54.531Z,101965.84
2023-02-26T10:03:26.759Z,101955.63
2023-02-26T10:06:13.751Z,101964.22
2023-02-26T10:09:14.160Z,101964.38
2023-02-26T10:12:04.799Z,101963.81
2023-02-26T10:15:01.557Z,101964.00
2023-02-26T10:17:52.936Z,101985.06
2023-02-26T10:20:50.054Z,101982.88
2023-02-26T10:23:39.241Z,101982.41
2023-02-26T10:26:17.742Z,101990.53
2023-02-26T10:28:51.554Z,101989.63
2023-02-26T10:31:30.202Z,101991.56
2023-02-26T10:34:30.914Z,101992.59
2023-02-26T10:37:19.557Z,101999.63
2023-02-26T10:39:56.956Z,101993.28
2023-02-26T10:42:33.941Z,102005.66
2023-02-26T10:45:27.958Z,102014.09
2023-02-26T10:48:50.010Z,102020.38
2023-02-26T10:51:28.191Z,102018.78
2023-02-26T10:54:01.166Z,102019.66
2023-02-26T10:56:34.494Z,102012.25
2023-02-26T10:59:01.443Z,102014.00
2023-02-26T11:01:30.955Z,102023.69
2023-02-26T11:04:07.175Z,102020.38
2023-02-26T11:06:40.428Z,102024.06
2023-02-26T11:09:44.472Z,102022.31
2023-02-26T11:12:11.287Z,102022.59
2023-02-26T11:14:38.777Z,102023.44
2023-02-26T11:17:14.928Z,102024.44
2023-02-26T11:19:53.599Z,102024.09
2023-02-26T11:22:22.311Z,102020.41
2023-02-26T11:24:51.141Z,102027.25
2023-02-26T11:27:27.360Z,102013.00
2023-02-26T11:29:58.571Z,102018.53
2023-02-26T11:32:35.964Z,102031.41
2023-02-26T11:35:08.078Z,102026.56
2023-02-26T11:37:39.293Z,102034.56
2023-02-26T11:40:15.837Z,102034.94
2023-02-26T11:42:56.040Z,102042.69
2023-02-26T11:45:23.282Z,102035.53
2023-02-26T11:48:02.237Z,102035.09
2023-02-26T11:50:30.768Z,102041.03
2023-02-26T11:53:08.302Z,102037.19
2023-02-26T11:55:44.522Z,102042.03
2023-02-26T11:58:22.973Z,102046.19
2023-02-26T12:00:53.200Z,102046.25
2023-02-26T12:03:30.803Z,102037.94
2023-02-26T12:06:02.249Z,102037.03
2023-02-26T12:08:39.020Z,102040.25
2023-02-26T12:11:46.402Z,102029.50
2023-02-26T12:14:51.169Z,102033.22
2023-02-26T12:17:23.542Z,102042.16
2023-02-26T12:20:24.823Z,102040.72
2023-02-26T12:23:31.202Z,102041.22
2023-02-26T12:26:28.806Z,102049.28
2023-02-26T12:29:10.468Z,102046.63
2023-02-26T12:32:35.944Z,102040.91
2023-02-26T12:35:41.542Z,102042.31
2023-02-26T12:38:26.119Z,102058.41
2023-02-26T12:41:10.918Z,102054.34
2023-02-26T12:43:51.500Z,102048.34
2023-02-26T12:47:19.938Z,102060.38
2023-02-26T12:50:08.150Z,102050.00
2023-02-26T12:52:56.151Z,102055.22
2023-02-26T12:55:55.638Z,102064.75
2023-02-26T12:58:47.666Z,102053.09
2023-02-26T13:01:56.019Z,102068.06
2023-02-26T13:05:09.404Z,102066.69
2023-02-26T13:08:18.193Z,102067.72
2023-02-26T13:10:57.383Z,102063.13
2023-02-26T13:13:58.174Z,102062.69
2023-02-26T13:16:40.206Z,102069.84
2023-02-26T13:19:44.618Z,102059.06
2023-02-26T13:23:03.962Z,102082.09
2023-02-26T13:25:39.217Z,102081.53
2023-02-26T13:28:42.260Z,102083.81
2023-02-26T13:31:27.562Z,102088.00
2023-02-26T13:33:59.142Z,102079.28
2023-02-26T13:36:29.178Z,102088.38
2023-02-26T13:39:36.049Z,102086.75
2023-02-26T13:42:26.078Z,102098.19
2023-02-26T13:45:07.950Z,102110.47
2023-02-26T13:47:58.542Z,102087.81
2023-02-26T13:51:05.931Z,102097.44
2023-02-26T13:53:38.856Z,102093.38
2023-02-26T13:56:17.550Z,102097.91
2023-02-26T13:59:03.617Z,102086.47
2023-02-26T14:01:54.463Z,102101.50
2023-02-26T14:04:22.335Z,102104.81
2023-02-26T14:07:10.916Z,102113.41
2023-02-26T14:09:54.757Z,102108.50
2023-02-26T14:12:37.619Z,102113.03
2023-02-26T14:15:13.568Z,102105.28
2023-02-26T14:18:03.281Z,102106.16
2023-02-26T14:20:34.786Z,102106.88
2023-02-26T14:23:11.917Z,102118.09
2023-02-26T14:25:52.743Z,102107.84
2023-02-26T14:28:25.310Z,102116.94
2023-02-26T14:31:11.030Z,102102.63
2023-02-26T14:33:46.304Z,102114.88
2023-02-26T14:36:30.980Z,102125.13
2023-02-26T14:39:01.395Z,102117.47
2023-02-26T14:41:36.615Z,102117.47
2023-02-26T14:44:18.130Z,102119.16
2023-02-26T14:46:45.602Z,102114.56
2023-02-26T14:49:31.534Z,102109.50
2023-02-26T14:52:29.033Z,102136.16
2023-02-26T14:55:28.395Z,102136.44
2023-02-26T14:58:35.659Z,102135.19
2023-02-26T15:01:28.996Z,102137.59
2023-02-26T15:04:47.320Z,102135.53
2023-02-26T15:07:48.107Z,102132.41
2023-02-26T15:10:26.601Z,102138.97
2023-02-26T15:13:19.660Z,102135.19
2023-02-26T15:15:54.098Z,102141.16
2023-02-26T15:18:48.883Z,102146.25
2023-02-26T15:21:30.472Z,102147.94
2023-02-26T15:23:59.618Z,102148.81
2023-02-26T15:26:30.726Z,102149.78
2023-02-26T15:28:59.836Z,102150.53
2023-02-26T15:31:50.577Z,102149.41
2023-02-26T15:34:20.110Z,102147.56
2023-02-26T15:36:53.098Z,102154.47
2023-02-26T15:39:23.811Z,102153.44
2023-02-26T15:41:54.214Z,102154.31
2023-02-26T15:44:32.115Z,102153.50
2023-02-26T15:47:03.469Z,102158.75
2023-02-26T15:49:40.953Z,102169.88
2023-02-26T15:52:12.769Z,102167.22
2023-02-26T15:54:44.774Z,102168.09
2023-02-26T15:57:13.609Z,102169.81
2023-02-26T15:59:46.545Z,102176.66
2023-02-26T16:02:35.488Z,102166.41
2023-02-26T16:05:03.913Z,102177.31
2023-02-26T16:07:30.868Z,102171.25
2023-02-26T16:10:05.773Z,102182.63
2023-02-26T16:12:43.648Z,102179.66
2023-02-26T16:15:28.442Z,102172.41
2023-02-26T16:17:56.361Z,102165.03
2023-02-26T16:20:27.082Z,102173.91
2023-02-26T16:23:05.904Z,102174.09
2023-02-26T16:25:42.067Z,102186.31
2023-02-26T16:28:21.050Z,102182.97
2023-02-26T16:30:54.204Z,102181.31
2023-02-26T16:33:25.112Z,102174.81
2023-02-26T16:36:10.113Z,102189.47
2023-02-26T16:38:49.721Z,102185.03
2023-02-26T16:41:21.528Z,102191.91
2023-02-26T16:43:57.629Z,102190.03
2023-02-26T16:46:43.497Z,102192.03
2023-02-26T16:49:23.695Z,102202.63
2023-02-26T16:51:51.822Z,102201.19
2023-02-26T16:54:27.210Z,102207.94
2023-02-26T16:57:16.390Z,102213.66
2023-02-26T16:59:51.594Z,102214.44
2023-02-26T17:02:35.088Z,102217.97
2023-02-26T17:05:22.459Z,102226.69
2023-02-26T17:07:58.309Z,102222.41
2023-02-26T17:10:34.314Z,102225.88
2023-02-26T17:13:17.296Z,102230.09
2023-02-26T17:15:47.124Z,102230.00
2023-02-26T17:18:14.557Z,102220.94
2023-02-26T17:20:41.756Z,102236.41
2023-02-26T17:23:09.545Z,102237.91
2023-02-26T17:25:41.986Z,102235.97
2023-02-26T17:28:15.659Z,102236.69
2023-02-26T17:30:42.582Z,102237.16
2023-02-26T17:33:13.562Z,102248.34
2023-02-26T17:35:41.234Z,102237.69
2023-02-26T17:38:13.256Z,102241.19
2023-02-26T17:40:42.411Z,102245.00
2023-02-26T17:43:10.120Z,102254.88
2023-02-26T17:45:40.182Z,102263.13
2023-02-26T17:48:08.638Z,102258.84
2023-02-26T17:50:43.830Z,102262.94
2023-02-26T17:53:10.851Z,102263.66
2023-02-26T17:55:39.442Z,102265.16
2023-02-26T17:58:30.506Z,102266.03
2023-02-26T18:00:58.009Z,102247.97
2023-02-26T18:03:24.932Z,102270.94
2023-02-26T18:05:54.637Z,102279.34
2023-02-26T18:08:26.603Z,102274.91
2023-02-26T18:10:54.612Z,102272.66
2023-02-26T18:13:21.950Z,102262.19
2023-02-26T18:15:50.403Z,102274.25
2023-02-26T18:18:18.558Z,102257.88
2023-02-26T18:20:46.118Z,102265.72
2023-02-26T18:23:13.848Z,102279.56
2023-02-26T18:25:42.301Z,102286.88
2023-02-26T18:28:20.545Z,102289.97
2023-02-26T18:30:48.538Z,102294.84
2023-02-26T18:33:18.777Z,102293.78
2023-02-26T18:35:50.032Z,102288.03
2023-02-26T18:38:19.850Z,102294.19
2023-02-26T18:40:47.710Z,102285.28
2023-02-26T18:43:14.849Z,102292.19
2023-02-26T18:45:44.134Z,102287.75
2023-02-26T18:48:15.851Z,102291.03
2023-02-26T18:50:44.522Z,102295.19
2023-02-26T18:53:11.931Z,102292.94
2023-02-26T18:55:39.049Z,102292.31
2023-02-26T18:58:05.950Z,102303.41
2023-02-26T19:00:32.798Z,102300.63
2023-02-26T19:02:59.647Z,102302.22
2023-02-26T19:05:27.139Z,102300.34
2023-02-26T19:07:54.722Z,102303.63
2023-02-26T19:10:22.332Z,102304.31
2023-02-26T19:12:50.792Z,102303.91
2023-02-26T19:15:18.245Z,102301.06
2023-02-26T19:17:45.352Z,102305.09
2023-02-26T19:20:13.534Z,102306.47
2023-02-26T19:22:41.833Z,102305.41
2023-02-26T19:25:09.968Z,102311.25
2023-02-26T19:27:37.457Z,102311.94
2023-02-26T19:30:06.138Z,102306.31
2023-02-26T19:32:33.164Z,102308.66
2023-02-26T19:35:00.237Z,102309.25
2023-02-26T19:37:27.113Z,102308.25
2023-02-26T19:39:53.979Z,102303.63
2023-02-26T19:42:20.980Z,102307.84
2023-02-26T19:44:47.834Z,102310.22
2023-02-26T19:47:14.676Z,102317.72
2023-02-26T19:49:41.524Z,102314.16
2023-02-26T19:52:08.607Z,102317.34
2023-02-26T19:54:35.579Z,102314.75
2023-02-26T19:57:02.428Z,102309.41
2023-02-26T19:59:29.459Z,102320.59
2023-02-26T20:01:56.476Z,102316.59
2023-02-26T20:04:23.373Z,102323.84
2023-02-26T20:06:50.623Z,102333.19
2023-02-26T20:09:19.010Z,102335.69
2023-02-26T20:11:46.085Z,102332.88
2023-02-26T20:14:12.967Z,102333.56
2023-02-26T20:16:39.816Z,102335.16
2023-02-26T20:19:06.945Z,102331.59
2023-02-26T20:21:34.011Z,102320.00
2023-02-26T20:24:00.876Z,102331.41
2023-02-26T20:26:27.759Z,102326.25
2023-02-26T20:28:54.630Z,102339.88
2023-02-26T20:31:21.600Z,102338.09
2023-02-26T20:33:48.511Z,102346.56
2023-02-26T20:36:15.363Z,102333.22
2023-02-26T20:38:42.869Z,102339.16
2023-02-26T20:41:10.262Z,102344.47
2023-02-26T20:43:37.272Z,102352.09
2023-02-26T20:46:04.477Z,102345.16
2023-02-26T20:48:32.983Z,102334.25
2023-02-26T20:51:02.533Z,102351.66
2023-02-26T20:53:29.403Z,102347.91
2023-02-26T20:55:56.867Z,102345.53
2023-02-26T20:58:25.659Z,102356.69
2023-02-26T21:00:56.496Z,102360.84
2023-02-26T21:03:23.948Z,102359.94
2023-02-26T21:05:51.314Z,102364.19
2023-02-26T21:08:18.186Z,102366.66
2023-02-26T21:10:45.280Z,102368.22
2023-02-26T21:13:12.135Z,102370.59
2023-02-26T21:15:38.978Z,102374.59
2023-02-26T21:18:05.836Z,102383.66
2023-02-26T21:20:32.757Z,102382.63
2023-02-26T21:22:59.613Z,102384.19
2023-02-26T21:25:27.385Z,102395.06
2023-02-26T21:27:54.284Z,102388.91
2023-02-26T21:30:23.201Z,102391.38
2023-02-26T21:32:50.704Z,102394.59
2023-02-26T21:35:17.960Z,102397.16
2023-02-26T21:37:45.489Z,102385.41
2023-02-26T21:40:15.759Z,102391.84
2023-02-26T21:42:43.114Z,102397.56
2023-02-26T21:45:11.097Z,102401.09
2023-02-26T21:47:37.997Z,102401.00
2023-02-26T21:50:06.795Z,102407.81
2023-02-26T21:52:33.773Z,102415.38
2023-02-26T21:55:00.770Z,102411.03
2023-02-26T21:57:28.058Z,102413.50
2023-02-26T21:59:55.078Z,102418.63
2023-02-26T22:02:22.054Z,102416.84
2023-02-26T22:04:48.973Z,102423.63
2023-02-26T22:07:15.908Z,102420.06
2023-02-26T22:09:46.179Z,102423.28
2023-02-26T22:12:13.873Z,102424.09
2023-02-26T22:14:40.791Z,102432.56
2023-02-26T22:17:07.669Z,102430.69
2023-02-26T22:19:34.641Z,102439.03
2023-02-26T22:22:01.540Z,102434.69
2023-02-26T22:24:28.601Z,102431.91
2023-02-26T22:26:55.463Z,102430.00
2023-02-26T22:29:24.067Z,102445.16
2023-02-26T22:31:51.076Z,102442.47
2023-02-26T22:34:18.111Z,102433.69
2023-02-26T22:36:45.118Z,102438.81
2023-02-26T22:39:13.199Z,102443.94
2023-02-26T22:41:40.184Z,102434.13
2023-02-26T22:44:07.162Z,102443.59
2023-02-26T22:46:34.248Z,102447.72
2023-02-26T22:49:01.216Z,102443.25
2023-02-26T22:51:29.816Z,102438.81
2023-02-26T22:53:56.734Z,102442.03
2023-02-26T22:56:23.599Z,102437.72
2023-02-26T22:58:50.449Z,102439.34
2023-02-26T23:01:17.932Z,102433.56
2023-02-26T23:03:44.942Z,102439.94
2023-02-26T23:06:12.076Z,102446.72
2023-02-26T23:08:39.099Z,102443.91
2023-02-26T23:11:07.105Z,102442.28
2023-02-26T23:13:35.518Z,102443.91
2023-02-26T23:16:05.559Z,102448.16
2023-02-26T23:18:32.978Z,102447.16
2023-02-26T23:21:00.800Z,102447.16
2023-02-26T23:23:27.642Z,102442.69
2023-02-26T23:25:54.752Z,102434.22
2023-02-26T23:28:24.198Z,102448.38
2023-02-26T23:30:52.174Z,102442.25
2023-02-26T23:33:19.082Z,102454.16
2023-02-26T23:35:45.951Z,102448.13
2023-02-26T23:38:12.830Z,102441.09
2023-02-26T23:40:39.763Z,102445.25
2023-02-26T23:43:06.643Z,102450.25
2023-02-26T23:45:33.552Z,102451.03
2023-02-26T23:48:00.438Z,102457.59
2023-02-26T23:50:27.330Z,102461.81
2023-02-26T23:52:54.228Z,102466.81
2023-02-26T23:55:21.487Z,102463.25
2023-02-26T23:57:48.374Z,102461.47
